Time;durP1;ratioP1;P1;durP2;ratioP2;P2;SDS_P1;SDS_P2;PMS_P1;PMS_P2;Temp;Humidity;BMP_temperature;BMP_pressure;BME280_temperature;BME280_humidity;BME280_pressure;Samples;Min_cycle;Max_cycle;Signal;HPM_P1;HPM_P2
2021/12/27 00:02:23;;;;;;;;;;;5.10;99.90;;;;;;5068979;28;19924;-47
2021/12/27 00:04:50;;;;;;;;;;;5.20;99.90;;;;;;5060841;28;19929;-47
2021/12/27 00:07:17;;;;;;;;;;;5.20;99.90;;;;;;5068918;28;19970;-49
2021/12/27 00:09:44;;;;;;;;;;;5.20;99.90;;;;;;5071133;28;19970;-47
2021/12/27 00:12:10;;;;;;;;;;;5.30;99.90;;;;;;5071751;28;19925;-48
2021/12/27 00:14:38;;;;;;;;;;;5.30;99.90;;;;;;5071546;28;19970;-48
2021/12/27 00:17:05;;;;;;;;;;;5.30;99.90;;;;;;5071803;28;19978;-48
2021/12/27 00:19:33;;;;;;;;;;;5.40;99.90;;;;;;5071604;28;19924;-48
2021/12/27 00:21:59;;;;;;;;;;;5.50;99.90;;;;;;5071566;28;19974;-48
2021/12/27 00:24:26;;;;;;;;;;;5.60;99.90;;;;;;5071351;28;19924;-47
2021/12/27 00:26:53;;;;;;;;;;;5.70;99.90;;;;;;5071463;28;19990;-48
2021/12/27 00:29:20;;;;;;;;;;;5.60;99.90;;;;;;5071611;28;19928;-49
2021/12/27 00:31:48;;;;;;;;;;;5.40;99.90;;;;;;5071700;28;19986;-48
2021/12/27 00:34:15;;;;;;;;;;;5.30;99.90;;;;;;5071418;28;20347;-49
2021/12/27 00:36:42;;;;;;;;;;;5.30;99.90;;;;;;5071685;28;20381;-48
2021/12/27 00:39:09;;;;;;;;;;;5.30;99.90;;;;;;5071189;28;19978;-48
2021/12/27 00:41:36;;;;;;;;;;;5.30;99.90;;;;;;5071589;28;19924;-48
2021/12/27 00:44:02;;;;;;;;;;;5.30;99.90;;;;;;5071289;28;19928;-48
2021/12/27 00:46:29;;;;;;;;;;;5.20;99.90;;;;;;5071380;28;19925;-47
2021/12/27 00:48:57;;;;;;;;;;;5.20;99.90;;;;;;5071831;28;19928;-48
2021/12/27 00:51:25;;;;;;;;;;;5.30;99.90;;;;;;5071900;28;19978;-49
2021/12/27 00:53:52;;;;;;;;;;;5.20;99.90;;;;;;5071210;28;20393;-48
2021/12/27 00:56:18;;;;;;;;;;;5.20;99.90;;;;;;5071549;28;19978;-48
2021/12/27 00:58:45;;;;;;;;;;;5.30;99.90;;;;;;5071555;28;19925;-47
2021/12/27 01:01:12;;;;;;;;;;;5.20;99.90;;;;;;5071735;28;20360;-48
2021/12/27 01:03:39;;;;;;;;;;;5.20;99.90;;;;;;5069151;28;20286;-47
2021/12/27 01:06:07;;;;;;;;;;;5.20;99.90;;;;;;5071226;28;19932;-47
2021/12/27 01:08:36;;;;;;;;;;;5.10;99.90;;;;;;5071424;28;19924;-49
2021/12/27 01:11:21;;;;;;;;;;;5.20;99.90;;;;;;5075791;28;19924;-48
2021/12/27 01:14:00;;;;;;;;;;;5.10;99.90;;;;;;5075064;28;19978;-49
2021/12/27 01:16:27;;;;;;;;;;;5.00;99.90;;;;;;5075524;28;19946;-48
2021/12/27 01:18:54;;;;;;;;;;;5.00;99.90;;;;;;5074987;28;20444;-49
2021/12/27 01:21:23;;;;;;;;;;;5.00;99.90;;;;;;5075117;28;20325;-48
2021/12/27 01:23:51;;;;;;;;;;;5.10;99.90;;;;;;5075301;28;19925;-47
2021/12/27 01:26:18;;;;;;;;;;;5.00;99.90;;;;;;5069373;28;19929;-48
2021/12/27 01:28:45;;;;;;;;;;;5.00;99.90;;;;;;5075063;28;19924;-47
2021/12/27 01:31:11;;;;;;;;;;;5.20;99.90;;;;;;5075101;28;20031;-48
2021/12/27 01:33:39;;;;;;;;;;;5.20;99.90;;;;;;5070455;28;19925;-49
2021/12/27 01:36:06;;;;;;;;;;;5.30;99.90;;;;;;5074584;28;20334;-48
2021/12/27 01:38:36;;;;;;;;;;;5.30;99.90;;;;;;5074718;28;20385;-48
2021/12/27 01:41:03;;;;;;;;;;;5.30;99.90;;;;;;5075082;28;19925;-47
2021/12/27 01:43:30;;;;;;;;;;;5.20;99.90;;;;;;5074436;28;19924;-47
2021/12/27 01:45:58;;;;;;;;;;;5.20;99.90;;;;;;5074700;28;19974;-49
2021/12/27 01:48:29;;;;;;;;;;;5.30;99.90;;;;;;5074505;28;20344;-48
2021/12/27 01:50:56;;;;;;;;;;;5.20;99.90;;;;;;5074521;28;20374;-48
2021/12/27 01:53:23;;;;;;;;;;;5.20;99.90;;;;;;5074369;28;19924;-48
2021/12/27 01:55:52;;;;;;;;;;;5.30;99.90;;;;;;5074673;28;19924;-48
2021/12/27 01:58:19;;;;;;;;;;;5.30;99.90;;;;;;5074322;28;19986;-47
2021/12/27 02:00:48;;;;;;;;;;;5.30;99.90;;;;;;5074611;28;19924;-48
2021/12/27 02:03:15;;;;;;;;;;;5.20;99.90;;;;;;5074238;28;19928;-48
2021/12/27 02:05:42;;;;;;;;;;;5.20;99.90;;;;;;5074695;28;19946;-48
2021/12/27 02:08:09;;;;;;;;;;;5.00;99.90;;;;;;5074337;28;20049;-47
2021/12/27 02:10:36;;;;;;;;;;;4.90;99.90;;;;;;5074175;28;19928;-48
2021/12/27 02:13:04;;;;;;;;;;;4.80;99.90;;;;;;5073998;28;19924;-47
2021/12/27 02:15:31;;;;;;;;;;;4.80;99.90;;;;;;5074165;28;19928;-48
2021/12/27 02:17:58;;;;;;;;;;;4.80;99.90;;;;;;5073264;28;19924;-48
2021/12/27 02:20:28;;;;;;;;;;;4.80;99.90;;;;;;5073226;28;19932;-48
2021/12/27 02:22:59;;;;;;;;;;;4.70;99.90;;;;;;5073811;28;19925;-48
2021/12/27 02:25:27;;;;;;;;;;;4.80;99.90;;;;;;5107390;22;19923;-48
2021/12/27 02:27:54;;;;;;;;;;;4.80;99.90;;;;;;5111322;28;19993;-49
2021/12/27 02:30:22;;;;;;;;;;;4.80;99.90;;;;;;5112374;28;20280;-49
2021/12/27 02:32:50;;;;;;;;;;;4.80;99.90;;;;;;5118941;27;19924;-48
2021/12/27 02:35:18;;;;;;;;;;;4.80;99.90;;;;;;5111730;28;19988;-49
2021/12/27 02:37:49;;;;;;;;;;;4.70;99.90;;;;;;5107554;28;20458;-49
2021/12/27 02:40:16;;;;;;;;;;;4.80;99.90;;;;;;5091732;28;19964;-48
2021/12/27 02:42:52;;;;;;;;;;;4.90;99.90;;;;;;5091368;28;19932;-48
2021/12/27 02:45:19;;;;;;;;;;;4.80;99.90;;;;;;5091761;28;19928;-49
2021/12/27 02:47:46;;;;;;;;;;;4.80;99.90;;;;;;5094707;28;19953;-49
2021/12/27 02:50:13;;;;;;;;;;;4.80;99.90;;;;;;5111656;28;19940;-51
2021/12/27 02:52:39;;;;;;;;;;;4.80;99.90;;;;;;5111852;28;19924;-49
2021/12/27 02:55:08;;;;;;;;;;;4.80;99.90;;;;;;5111663;28;19931;-48
2021/12/27 02:57:34;;;;;;;;;;;4.80;99.90;;;;;;5109900;28;19923;-48
2021/12/27 03:00:01;;;;;;;;;;;4.90;99.90;;;;;;5091383;28;20446;-49
2021/12/27 03:02:28;;;;;;;;;;;4.80;99.90;;;;;;5091040;28;19928;-49
2021/12/27 03:04:55;;;;;;;;;;;4.70;99.90;;;;;;5091260;28;19975;-49
2021/12/27 03:07:21;;;;;;;;;;;4.60;99.90;;;;;;5091106;28;19928;-49
2021/12/27 03:09:49;;;;;;;;;;;4.50;99.90;;;;;;5110769;28;20186;-49
2021/12/27 03:12:17;;;;;;;;;;;4.50;99.90;;;;;;5111270;28;19977;-49
2021/12/27 03:14:43;;;;;;;;;;;4.50;99.90;;;;;;5110363;28;20385;-48
2021/12/27 03:17:10;;;;;;;;;;;4.40;99.90;;;;;;5111425;28;19968;-48
2021/12/27 03:19:37;;;;;;;;;;;4.30;99.90;;;;;;5092491;28;19938;-48
2021/12/27 03:22:04;;;;;;;;;;;4.20;99.90;;;;;;5090918;28;20227;-49
2021/12/27 03:24:30;;;;;;;;;;;4.10;99.90;;;;;;5090620;28;20376;-49
2021/12/27 03:26:57;;;;;;;;;;;4.10;99.90;;;;;;5094064;28;20393;-49
2021/12/27 03:29:25;;;;;;;;;;;4.10;99.90;;;;;;5091745;28;19965;-49
2021/12/27 03:31:55;;;;;;;;;;;4.20;99.90;;;;;;5090610;28;19924;-49
2021/12/27 03:34:21;;;;;;;;;;;4.30;99.90;;;;;;5090410;28;20392;-48
2021/12/27 03:36:48;;;;;;;;;;;4.30;99.90;;;;;;5090433;28;19924;-48
2021/12/27 03:39:15;;;;;;;;;;;4.20;99.90;;;;;;5104786;28;19924;-49
2021/12/27 03:41:42;;;;;;;;;;;4.20;99.90;;;;;;5108104;28;19923;-47
2021/12/27 03:44:08;;;;;;;;;;;4.30;99.90;;;;;;5090278;28;19977;-49
2021/12/27 03:46:36;;;;;;;;;;;4.30;99.90;;;;;;5090077;28;19977;-48
2021/12/27 03:49:03;;;;;;;;;;;4.20;99.90;;;;;;5103023;28;19924;-49
2021/12/27 03:51:30;;;;;;;;;;;4.30;99.90;;;;;;5110418;28;19970;-49
2021/12/27 03:53:57;;;;;;;;;;;4.20;99.90;;;;;;5110555;28;20307;-49
2021/12/27 03:56:24;;;;;;;;;;;4.20;99.90;;;;;;5103610;28;19980;-49
2021/12/27 03:58:57;;;;;;;;;;;4.10;99.90;;;;;;5108083;28;20266;-48
2021/12/27 04:01:24;;;;;;;;;;;4.10;99.90;;;;;;5109799;28;20273;-48
2021/12/27 04:03:53;;;;;;;;;;;4.30;99.90;;;;;;5091878;28;19989;-49
2021/12/27 04:06:21;;;;;;;;;;;4.40;99.90;;;;;;5089849;28;19924;-47
2021/12/27 04:08:48;;;;;;;;;;;4.30;99.90;;;;;;5102773;28;19984;-49
2021/12/27 04:11:15;;;;;;;;;;;4.30;99.90;;;;;;5097088;28;20076;-48
2021/12/27 04:13:43;;;;;;;;;;;4.10;99.90;;;;;;5108809;28;19999;-48
2021/12/27 04:16:10;;;;;;;;;;;4.00;99.90;;;;;;5104740;28;19993;-48
2021/12/27 04:18:37;;;;;;;;;;;4.00;99.90;;;;;;5100462;28;20365;-48
2021/12/27 04:21:05;;;;;;;;;;;4.00;99.90;;;;;;5110239;28;19924;-48
2021/12/27 04:23:32;;;;;;;;;;;4.00;99.90;;;;;;5100733;28;20036;-47
2021/12/27 04:25:59;;;;;;;;;;;4.10;99.90;;;;;;5097245;28;20406;-47
2021/12/27 04:28:26;;;;;;;;;;;4.10;99.90;;;;;;5103159;28;19927;-48
2021/12/27 04:30:52;;;;;;;;;;;4.20;99.90;;;;;;5089625;28;20607;-49
2021/12/27 04:33:19;;;;;;;;;;;4.20;99.90;;;;;;5100791;28;20011;-48
2021/12/27 04:35:46;;;;;;;;;;;4.20;99.90;;;;;;5109869;28;19946;-48
2021/12/27 04:38:14;;;;;;;;;;;4.10;99.90;;;;;;5100807;28;19928;-47
2021/12/27 04:40:44;;;;;;;;;;;4.00;99.90;;;;;;5089601;28;19924;-47
2021/12/27 04:43:12;;;;;;;;;;;4.00;99.90;;;;;;5095854;28;19924;-49
2021/12/27 04:45:39;;;;;;;;;;;4.10;99.90;;;;;;5097132;28;19982;-48
2021/12/27 04:48:06;;;;;;;;;;;4.10;99.90;;;;;;5092761;28;19988;-49
2021/12/27 04:50:33;;;;;;;;;;;4.00;99.90;;;;;;5093010;28;19928;-48
2021/12/27 04:53:00;;;;;;;;;;;4.00;99.90;;;;;;5109845;28;19924;-49
2021/12/27 04:55:29;;;;;;;;;;;3.90;99.90;;;;;;5094062;28;19968;-49
2021/12/27 04:57:56;;;;;;;;;;;4.00;99.90;;;;;;5088849;28;20251;-49
2021/12/27 05:00:23;;;;;;;;;;;4.10;99.90;;;;;;5095101;28;20418;-49
2021/12/27 05:02:49;;;;;;;;;;;4.20;99.90;;;;;;5109692;28;19989;-48
2021/12/27 05:05:17;;;;;;;;;;;4.20;99.90;;;;;;5107854;28;19991;-48
2021/12/27 05:07:44;;;;;;;;;;;4.20;99.90;;;;;;5098255;28;19924;-48
2021/12/27 05:10:11;;;;;;;;;;;4.20;99.90;;;;;;5097579;28;19931;-48
2021/12/27 05:12:39;;;;;;;;;;;4.20;99.90;;;;;;5105120;28;20000;-48
2021/12/27 05:15:06;;;;;;;;;;;4.20;99.90;;;;;;5109328;28;19936;-48
2021/12/27 05:17:33;;;;;;;;;;;4.20;99.90;;;;;;5097782;28;20253;-49
2021/12/27 05:20:04;;;;;;;;;;;4.00;99.90;;;;;;5109244;28;20333;-49
2021/12/27 05:22:31;;;;;;;;;;;3.90;99.90;;;;;;5109637;28;19951;-48
2021/12/27 05:24:58;;;;;;;;;;;3.80;99.90;;;;;;5109202;28;19923;-48
2021/12/27 05:27:25;;;;;;;;;;;3.70;99.90;;;;;;5109297;28;19935;-48
2021/12/27 05:29:53;;;;;;;;;;;3.70;99.90;;;;;;5088938;28;19924;-48
2021/12/27 05:32:19;;;;;;;;;;;3.60;99.90;;;;;;5088989;28;19970;-49
2021/12/27 05:34:46;;;;;;;;;;;3.50;99.90;;;;;;5098137;28;19928;-47
2021/12/27 05:37:13;;;;;;;;;;;3.50;99.90;;;;;;5109511;28;20363;-48
2021/12/27 05:39:40;;;;;;;;;;;3.40;99.90;;;;;;5095714;28;19989;-48
2021/12/27 05:42:07;;;;;;;;;;;3.30;99.90;;;;;;5109308;28;19923;-48
2021/12/27 05:44:34;;;;;;;;;;;3.40;99.90;;;;;;5090267;28;19928;-48
2021/12/27 05:47:02;;;;;;;;;;;3.50;99.90;;;;;;5094342;28;19976;-47
2021/12/27 05:49:29;;;;;;;;;;;3.40;99.90;;;;;;5096493;28;20064;-48
2021/12/27 05:51:55;;;;;;;;;;;3.40;99.90;;;;;;5094496;28;19953;-49
2021/12/27 05:54:22;;;;;;;;;;;3.30;99.90;;;;;;5109379;28;19924;-48
2021/12/27 05:56:49;;;;;;;;;;;3.30;99.90;;;;;;5110829;28;20304;-48
2021/12/27 05:59:17;;;;;;;;;;;3.20;99.90;;;;;;5112417;28;20381;-48
2021/12/27 06:01:43;;;;;;;;;;;3.10;99.90;;;;;;5108112;28;20346;-48
2021/12/27 06:04:12;;;;;;;;;;;3.00;99.90;;;;;;5092432;28;19924;-48
2021/12/27 06:06:38;;;;;;;;;;;2.90;99.90;;;;;;5092607;28;19924;-49
2021/12/27 06:09:06;;;;;;;;;;;3.10;99.90;;;;;;5104438;28;19968;-48
2021/12/27 06:11:33;;;;;;;;;;;3.10;99.90;;;;;;5112608;28;20369;-48
2021/12/27 06:14:00;;;;;;;;;;;3.10;99.90;;;;;;5108254;28;19977;-47
2021/12/27 06:16:27;;;;;;;;;;;3.00;99.90;;;;;;5094919;28;19993;-48
2021/12/27 06:18:53;;;;;;;;;;;2.90;99.90;;;;;;5110731;28;19924;-47
2021/12/27 06:21:21;;;;;;;;;;;2.90;99.90;;;;;;5106797;28;19957;-48
2021/12/27 06:23:48;;;;;;;;;;;2.90;99.90;;;;;;5105717;28;20257;-48
2021/12/27 06:26:15;;;;;;;;;;;2.90;99.90;;;;;;5093181;28;19932;-49
2021/12/27 06:28:42;;;;;;;;;;;2.90;99.90;;;;;;5094878;28;19939;-49
2021/12/27 06:31:08;;;;;;;;;;;2.90;99.90;;;;;;5112555;28;19924;-48
2021/12/27 06:33:35;;;;;;;;;;;3.00;99.90;;;;;;5097080;28;19928;-48
2021/12/27 06:36:02;;;;;;;;;;;3.00;99.90;;;;;;5096296;28;19993;-48
2021/12/27 06:38:31;;;;;;;;;;;3.10;99.90;;;;;;5102339;28;19977;-49
2021/12/27 06:41:00;;;;;;;;;;;3.00;99.90;;;;;;5105831;28;20389;-47
2021/12/27 06:43:27;;;;;;;;;;;3.00;99.90;;;;;;5101077;28;19978;-48
2021/12/27 06:45:54;;;;;;;;;;;2.90;99.90;;;;;;5103228;28;19928;-48
2021/12/27 06:48:21;;;;;;;;;;;2.90;99.90;;;;;;5092693;28;19924;-48
2021/12/27 06:50:48;;;;;;;;;;;2.90;99.90;;;;;;5096708;28;19977;-48
2021/12/27 06:53:16;;;;;;;;;;;2.90;99.90;;;;;;5099185;28;19924;-48
2021/12/27 06:55:44;;;;;;;;;;;2.90;99.90;;;;;;5099825;28;20407;-48
2021/12/27 06:58:11;;;;;;;;;;;2.90;99.90;;;;;;5096772;28;19924;-48
2021/12/27 07:00:37;;;;;;;;;;;2.90;99.90;;;;;;5103047;28;19940;-48
2021/12/27 07:03:04;;;;;;;;;;;2.90;99.90;;;;;;5100831;28;19928;-48
2021/12/27 07:05:31;;;;;;;;;;;2.90;99.90;;;;;;5101448;28;20334;-49
2021/12/27 07:07:58;;;;;;;;;;;2.80;99.90;;;;;;5097972;28;20413;-48
2021/12/27 07:10:24;;;;;;;;;;;2.70;99.90;;;;;;5101362;28;19932;-48
2021/12/27 07:12:52;;;;;;;;;;;2.70;99.90;;;;;;5091021;28;19939;-48
2021/12/27 07:15:19;;;;;;;;;;;2.70;99.90;;;;;;5090851;28;19924;-48
2021/12/27 07:17:46;;;;;;;;;;;2.70;99.90;;;;;;5098117;28;19931;-49
2021/12/27 07:20:13;;;;;;;;;;;2.70;99.90;;;;;;5100647;28;19988;-47
2021/12/27 07:22:39;;;;;;;;;;;2.90;99.90;;;;;;5105649;28;19924;-48
2021/12/27 07:25:07;;;;;;;;;;;3.00;99.90;;;;;;5110034;28;19923;-48
2021/12/27 07:27:33;;;;;;;;;;;3.10;99.90;;;;;;5095037;28;19969;-48
2021/12/27 07:30:02;;;;;;;;;;;3.10;99.90;;;;;;5105212;28;19927;-49
2021/12/27 07:32:29;;;;;;;;;;;3.20;99.90;;;;;;5103680;28;20021;-48
2021/12/27 07:34:56;;;;;;;;;;;3.20;99.90;;;;;;5100706;28;19980;-48
2021/12/27 07:37:22;;;;;;;;;;;3.20;99.90;;;;;;5103814;28;19940;-48
2021/12/27 07:39:49;;;;;;;;;;;3.20;99.90;;;;;;5109590;28;20006;-48
2021/12/27 07:42:16;;;;;;;;;;;3.20;99.90;;;;;;5094861;28;19959;-48
2021/12/27 07:44:43;;;;;;;;;;;3.30;99.90;;;;;;5093750;28;20021;-48
2021/12/27 07:47:11;;;;;;;;;;;3.40;99.90;;;;;;5096115;28;19923;-49
2021/12/27 07:49:39;;;;;;;;;;;3.40;99.90;;;;;;5101418;28;20008;-49
2021/12/27 07:52:07;;;;;;;;;;;3.50;99.90;;;;;;5101867;28;20038;-48
2021/12/27 07:54:33;;;;;;;;;;;3.60;99.90;;;;;;5098428;28;19984;-48
2021/12/27 07:57:01;;;;;;;;;;;3.60;99.90;;;;;;5090251;28;19924;-49
2021/12/27 07:59:28;;;;;;;;;;;3.60;99.90;;;;;;5090032;28;20022;-49
2021/12/27 08:01:54;;;;;;;;;;;3.60;99.90;;;;;;5097800;28;19924;-49
2021/12/27 08:04:23;;;;;;;;;;;3.50;99.90;;;;;;5103336;28;20005;-49
2021/12/27 08:06:49;;;;;;;;;;;3.50;99.90;;;;;;5102615;28;20327;-48
2021/12/27 08:09:16;;;;;;;;;;;3.50;99.90;;;;;;5091736;28;20365;-48
2021/12/27 08:11:43;;;;;;;;;;;3.40;99.90;;;;;;5094276;28;20035;-48
2021/12/27 08:14:10;;;;;;;;;;;3.60;99.90;;;;;;5103925;28;20373;-48
2021/12/27 08:16:37;;;;;;;;;;;3.60;99.90;;;;;;5098095;28;20360;-48
2021/12/27 08:19:04;;;;;;;;;;;3.70;99.90;;;;;;5102464;28;19947;-49
2021/12/27 08:21:33;;;;;;;;;;;3.70;99.90;;;;;;5098714;28;19977;-48
2021/12/27 08:24:00;;;;;;;;;;;3.80;99.90;;;;;;5097565;28;19927;-49
2021/12/27 08:26:26;;;;;;;;;;;4.60;99.90;;;;;;5104675;28;19928;-49
2021/12/27 08:28:54;;;;;;;;;;;5.90;99.90;;;;;;5089189;28;20053;-50
2021/12/27 08:31:21;;;;;;;;;;;6.80;99.90;;;;;;5089097;28;19968;-50
2021/12/27 08:33:48;;;;;;;;;;;7.40;99.90;;;;;;5089170;28;20005;-51
2021/12/27 08:36:15;;;;;;;;;;;7.70;99.90;;;;;;5090183;28;19970;-51
2021/12/27 08:38:44;;;;;;;;;;;7.80;99.90;;;;;;5093220;28;19928;-52
2021/12/27 08:41:12;;;;;;;;;;;7.90;99.90;;;;;;5109407;28;19972;-52
2021/12/27 08:43:38;;;;;;;;;;;8.10;99.90;;;;;;5109050;28;19928;-52
2021/12/27 08:46:05;;;;;;;;;;;8.60;99.90;;;;;;5109275;28;19931;-52
2021/12/27 08:48:32;;;;;;;;;;;9.00;99.90;;;;;;5108150;28;20446;-52
2021/12/27 08:50:59;;;;;;;;;;;9.30;99.90;;;;;;5098148;28;19927;-51
2021/12/27 08:53:26;;;;;;;;;;;9.70;99.90;;;;;;5108325;28;20068;-52
2021/12/27 08:55:54;;;;;;;;;;;10.30;99.90;;;;;;5106082;28;19985;-52
2021/12/27 08:58:21;;;;;;;;;;;10.90;99.90;;;;;;5109280;28;19927;-50
2021/12/27 09:00:48;;;;;;;;;;;11.20;99.90;;;;;;5088454;28;19994;-52
2021/12/27 09:03:15;;;;;;;;;;;11.20;99.90;;;;;;5091310;28;19927;-52
2021/12/27 09:05:42;;;;;;;;;;;11.20;99.90;;;;;;5092956;28;20009;-51
2021/12/27 09:08:11;;;;;;;;;;;10.50;99.90;;;;;;5107894;28;19924;-52
2021/12/27 09:10:37;;;;;;;;;;;10.40;99.90;;;;;;5098653;28;20005;-52
2021/12/27 09:13:06;;;;;;;;;;;10.70;99.90;;;;;;5089170;28;20001;-52
2021/12/27 09:15:33;;;;;;;;;;;11.50;99.90;;;;;;5089098;28;19932;-52
2021/12/27 09:18:00;;;;;;;;;;;12.10;99.90;;;;;;5088562;28;19925;-50
2021/12/27 09:20:27;;;;;;;;;;;12.30;99.90;;;;;;5088725;28;19928;-51
2021/12/27 09:22:55;;;;;;;;;;;12.00;99.90;;;;;;5088151;28;19924;-51
2021/12/27 09:25:22;;;;;;;;;;;11.50;99.90;;;;;;5100354;28;19965;-52
2021/12/27 09:27:49;;;;;;;;;;;11.20;99.90;;;;;;5088212;28;19993;-50
2021/12/27 09:30:18;;;;;;;;;;;10.50;99.90;;;;;;5098309;28;19927;-52
2021/12/27 09:32:48;;;;;;;;;;;9.90;99.90;;;;;;5111608;28;19924;-52
2021/12/27 09:35:15;;;;;;;;;;;9.20;99.90;;;;;;5093712;28;20404;-52
2021/12/27 09:37:42;;;;;;;;;;;8.70;99.90;;;;;;5092421;28;19977;-51
2021/12/27 09:40:09;;;;;;;;;;;8.60;99.90;;;;;;5093264;28;19924;-51
2021/12/27 09:42:36;;;;;;;;;;;8.10;99.90;;;;;;5092713;28;19924;-50
2021/12/27 09:45:04;;;;;;;;;;;7.80;99.90;;;;;;5103679;28;20023;-49
2021/12/27 09:47:33;;;;;;;;;;;7.80;99.90;;;;;;5107515;28;19976;-49
2021/12/27 09:50:00;;;;;;;;;;;8.10;99.90;;;;;;5090869;28;19978;-49
2021/12/27 09:52:27;;;;;;;;;;;7.90;99.90;;;;;;5090758;28;20442;-48
2021/12/27 09:54:54;;;;;;;;;;;7.90;99.90;;;;;;5094911;28;19924;-49
2021/12/27 09:57:20;;;;;;;;;;;8.10;99.90;;;;;;5099134;28;19936;-49
2021/12/27 09:59:47;;;;;;;;;;;8.20;99.90;;;;;;5094720;28;19928;-47
2021/12/27 10:02:14;;;;;;;;;;;8.30;99.90;;;;;;5101878;28;19978;-48
2021/12/27 10:04:44;;;;;;;;;;;8.20;99.90;;;;;;5110700;28;19996;-47
2021/12/27 10:07:19;;;;;;;;;;;8.40;99.90;;;;;;5095555;28;20141;-47
2021/12/27 10:09:45;;;;;;;;;;;8.80;99.90;;;;;;5093617;28;19964;-47
2021/12/27 10:12:19;;;;;;;;;;;9.30;99.90;;;;;;5091676;28;20000;-48
2021/12/27 10:14:46;;;;;;;;;;;10.00;99.90;;;;;;5102611;28;19984;-48
2021/12/27 10:17:13;;;;;;;;;;;11.20;99.90;;;;;;5091709;28;19925;-47
2021/12/27 10:19:40;;;;;;;;;;;12.70;99.90;;;;;;5096046;28;20223;-49
2021/12/27 10:22:12;;;;;;;;;;;14.20;99.90;;;;;;5099858;28;19997;-49
2021/12/27 10:24:39;;;;;;;;;;;14.70;99.90;;;;;;5104083;28;20367;-48
2021/12/27 10:27:06;;;;;;;;;;;15.50;99.90;;;;;;5094784;28;19981;-49
2021/12/27 10:29:34;;;;;;;;;;;16.40;99.90;;;;;;5094385;28;20040;-48
2021/12/27 10:32:04;;;;;;;;;;;16.90;99.90;;;;;;5098848;28;20023;-49
2021/12/27 10:34:31;;;;;;;;;;;17.40;99.90;;;;;;5091201;28;19939;-50
2021/12/27 10:37:03;;;;;;;;;;;17.70;99.90;;;;;;5100346;28;19927;-50
2021/12/27 10:39:41;;;;;;;;;;;16.70;99.90;;;;;;5098930;28;19932;-50
2021/12/27 10:42:08;;;;;;;;;;;16.10;99.90;;;;;;5090467;28;20008;-50
2021/12/27 10:44:36;;;;;;;;;;;14.90;99.90;;;;;;5096506;28;19983;-51
2021/12/27 10:47:03;;;;;;;;;;;12.80;99.90;;;;;;5091111;28;19924;-49
2021/12/27 10:49:44;;;;;;;;;;;11.20;99.90;;;;;;5094329;28;20006;-49
2021/12/27 10:52:11;;;;;;;;;;;10.50;99.90;;;;;;5090995;28;19924;-50
2021/12/27 10:54:39;;;;;;;;;;;10.50;99.90;;;;;;5106723;28;19992;-49
2021/12/27 10:57:06;;;;;;;;;;;10.20;99.90;;;;;;5091825;28;19978;-49
2021/12/27 10:59:33;;;;;;;;;;;10.00;99.90;;;;;;5090043;28;19960;-50
2021/12/27 11:02:08;;;;;;;;;;;9.90;99.90;;;;;;5090623;28;19924;-52
2021/12/27 11:04:35;;;;;;;;;;;10.00;99.90;;;;;;5095410;28;19931;-51
2021/12/27 11:07:02;;;;;;;;;;;9.80;99.90;;;;;;5110864;28;20350;-51
2021/12/27 11:09:29;;;;;;;;;;;9.70;99.90;;;;;;5109274;28;19981;-51
2021/12/27 11:11:58;;;;;;;;;;;9.90;99.90;;;;;;5102556;28;19923;-50
2021/12/27 11:14:28;;;;;;;;;;;10.10;99.90;;;;;;5093958;28;19996;-50
2021/12/27 11:16:55;;;;;;;;;;;10.00;99.90;;;;;;5090262;28;20235;-49
2021/12/27 11:19:23;;;;;;;;;;;10.20;99.90;;;;;;5101351;28;19927;-50
2021/12/27 11:21:50;;;;;;;;;;;10.20;99.90;;;;;;5099722;28;20058;-49
2021/12/27 11:24:18;;;;;;;;;;;10.20;99.90;;;;;;5109207;28;19981;-49
2021/12/27 11:26:45;;;;;;;;;;;10.20;99.90;;;;;;5094274;28;19924;-49
2021/12/27 11:29:15;;;;;;;;;;;10.10;99.90;;;;;;5101251;28;19932;-50
2021/12/27 11:31:43;;;;;;;;;;;10.20;99.90;;;;;;5105024;28;20372;-50
2021/12/27 11:34:12;;;;;;;;;;;10.10;99.90;;;;;;5091822;28;19924;-50
2021/12/27 11:36:39;;;;;;;;;;;10.10;99.90;;;;;;5090082;28;20299;-50
2021/12/27 11:39:18;;;;;;;;;;;10.00;99.90;;;;;;5089760;28;19924;-50
2021/12/27 11:41:44;;;;;;;;;;;10.00;99.90;;;;;;5089911;28;19981;-50
2021/12/27 11:44:17;;;;;;;;;;;10.10;99.90;;;;;;5096092;28;20060;-49
2021/12/27 11:46:58;;;;;;;;;;;10.20;99.90;;;;;;5090026;28;19924;-50
2021/12/27 11:49:32;;;;;;;;;;;10.10;99.90;;;;;;5091233;28;19974;-50
2021/12/27 11:52:12;;;;;;;;;;;10.10;99.90;;;;;;5089536;28;19935;-50
2021/12/27 11:54:48;;;;;;;;;;;10.10;99.90;;;;;;5089639;28;20555;-51
2021/12/27 11:57:37;;;;;;;;;;;9.90;99.90;;;;;;5089826;28;19928;-51
2021/12/27 12:00:31;;;;;;;;;;;9.80;99.90;;;;;;5095670;28;20034;-50
2021/12/27 12:03:10;;;;;;;;;;;9.90;99.90;;;;;;5099709;28;19932;-50
2021/12/27 12:05:39;;;;;;;;;;;10.20;99.90;;;;;;5098318;28;19932;-52
2021/12/27 12:08:07;;;;;;;;;;;10.40;99.90;;;;;;5094217;28;19924;-49
2021/12/27 12:10:34;;;;;;;;;;;10.50;99.90;;;;;;5089553;28;19997;-49
2021/12/27 12:13:24;;;;;;;;;;;10.50;99.90;;;;;;5095257;28;19976;-49
2021/12/27 12:15:58;;;;;;;;;;;10.60;99.90;;;;;;5090376;28;20014;-50
2021/12/27 12:18:26;;;;;;;;;;;10.60;99.90;;;;;;5091765;28;20385;-49
2021/12/27 12:20:53;;;;;;;;;;;10.50;99.90;;;;;;5098256;28;19932;-50
2021/12/27 12:23:22;;;;;;;;;;;10.50;99.90;;;;;;5088985;28;20633;-49
2021/12/27 12:25:57;;;;;;;;;;;10.60;99.90;;;;;;5089159;28;20034;-49
2021/12/27 12:28:24;;;;;;;;;;;10.60;99.90;;;;;;5089128;28;19977;-49
2021/12/27 12:30:52;;;;;;;;;;;10.20;99.90;;;;;;5100317;28;19977;-48
2021/12/27 12:33:20;;;;;;;;;;;10.10;99.90;;;;;;5092370;28;20022;-51
2021/12/27 12:35:51;;;;;;;;;;;10.20;99.90;;;;;;5097230;28;19936;-51
2021/12/27 12:38:19;;;;;;;;;;;10.10;99.90;;;;;;5089025;28;19931;-52
2021/12/27 12:40:47;;;;;;;;;;;9.90;99.90;;;;;;5089431;28;19985;-51
2021/12/27 12:43:30;;;;;;;;;;;9.40;99.90;;;;;;5089343;28;20004;-52
2021/12/27 12:45:57;;;;;;;;;;;9.20;99.90;;;;;;5102471;28;19928;-50
2021/12/27 12:48:27;;;;;;;;;;;9.20;99.90;;;;;;5107309;28;19928;-49
2021/12/27 12:50:55;;;;;;;;;;;9.00;99.90;;;;;;5098904;28;19925;-48
2021/12/27 12:53:29;;;;;;;;;;;9.00;99.90;;;;;;5089405;28;20356;-50
2021/12/27 12:55:59;;;;;;;;;;;9.10;99.90;;;;;;5089087;28;19924;-49
2021/12/27 12:58:31;;;;;;;;;;;9.00;99.90;;;;;;5088906;28;19928;-50
2021/12/27 13:01:02;;;;;;;;;;;9.00;99.90;;;;;;5103600;28;19924;-49
2021/12/27 13:03:28;;;;;;;;;;;8.90;99.90;;;;;;5107803;28;19932;-50
2021/12/27 13:05:58;;;;;;;;;;;8.80;99.90;;;;;;5108504;28;20601;-50
2021/12/27 13:08:25;;;;;;;;;;;8.70;99.90;;;;;;5108854;28;19924;-50
2021/12/27 13:10:55;;;;;;;;;;;8.60;99.90;;;;;;5102438;28;19924;-49
2021/12/27 13:13:22;;;;;;;;;;;8.50;99.90;;;;;;5093403;28;19932;-49
2021/12/27 13:15:50;;;;;;;;;;;8.60;99.90;;;;;;5095977;28;19928;-49
2021/12/27 13:18:17;;;;;;;;;;;8.40;99.90;;;;;;5098299;28;19997;-49
2021/12/27 13:20:45;;;;;;;;;;;8.40;99.90;;;;;;5093159;28;19961;-49
2021/12/27 13:23:14;;;;;;;;;;;8.30;99.90;;;;;;5093540;28;19928;-48
2021/12/27 13:25:43;;;;;;;;;;;8.30;99.90;;;;;;5093217;28;19988;-49
2021/12/27 13:28:15;;;;;;;;;;;8.30;99.90;;;;;;5093331;28;19924;-49
2021/12/27 13:30:49;;;;;;;;;;;8.30;99.90;;;;;;5092986;28;19986;-50
2021/12/27 13:33:17;;;;;;;;;;;8.40;99.90;;;;;;5098403;28;19945;-49
2021/12/27 13:35:44;;;;;;;;;;;8.30;99.90;;;;;;5092849;28;20004;-50
2021/12/27 13:38:17;;;;;;;;;;;8.30;99.90;;;;;;5092645;28;20525;-50
2021/12/27 13:40:45;;;;;;;;;;;8.20;99.90;;;;;;5113114;28;20423;-50
2021/12/27 13:43:11;;;;;;;;;;;8.40;99.90;;;;;;5113007;28;19930;-49
2021/12/27 13:45:41;;;;;;;;;;;8.60;99.90;;;;;;5112965;28;19932;-50
2021/12/27 13:48:09;;;;;;;;;;;8.70;99.90;;;;;;5112828;28;20295;-49
2021/12/27 13:50:36;;;;;;;;;;;8.70;99.90;;;;;;5113033;28;19924;-50
2021/12/27 13:53:09;;;;;;;;;;;8.60;99.90;;;;;;5113414;28;20046;-49
2021/12/27 13:55:38;;;;;;;;;;;8.60;99.90;;;;;;5113209;28;19924;-50
2021/12/27 13:58:11;;;;;;;;;;;8.40;99.90;;;;;;5112917;28;19936;-50
2021/12/27 14:00:38;;;;;;;;;;;8.30;99.90;;;;;;5092731;28;20385;-50
2021/12/27 14:03:05;;;;;;;;;;;8.40;99.90;;;;;;5092885;28;19924;-50
2021/12/27 14:05:32;;;;;;;;;;;8.30;99.90;;;;;;5092738;28;19986;-50
2021/12/27 14:08:09;;;;;;;;;;;8.20;99.90;;;;;;5092362;28;19924;-49
2021/12/27 14:10:37;;;;;;;;;;;8.10;99.90;;;;;;5109851;28;20410;-50
2021/12/27 14:13:04;;;;;;;;;;;8.10;99.90;;;;;;5095636;28;19931;-49
2021/12/27 14:15:32;;;;;;;;;;;8.10;99.90;;;;;;5095941;28;20335;-49
2021/12/27 14:18:09;;;;;;;;;;;8.00;99.90;;;;;;5108399;28;19981;-50
2021/12/27 14:20:35;;;;;;;;;;;7.90;99.90;;;;;;5093429;28;19977;-49
2021/12/27 14:23:07;;;;;;;;;;;7.80;99.90;;;;;;5101953;28;20303;-49
2021/12/27 14:25:33;;;;;;;;;;;7.80;99.90;;;;;;5092364;28;20001;-49
2021/12/27 14:28:02;;;;;;;;;;;7.80;99.90;;;;;;5102664;28;19989;-50
2021/12/27 14:30:30;;;;;;;;;;;7.70;99.90;;;;;;5094237;28;19932;-49
2021/12/27 14:33:01;;;;;;;;;;;7.50;99.90;;;;;;5096881;28;20338;-50
2021/12/27 14:35:29;;;;;;;;;;;7.60;99.90;;;;;;5101105;28;19931;-48